Reggio Calabria Airport LICR

Flugplatz Daten

Name: Reggio Calabria Airport

Ident: LICR

Lat: 38,07120132

Long: 15,65159988

Platzhöhe: 96 ft

IataCode: REG

City: Reggio Calabria

Metar

2021/08/05 14:50
LICR 051450Z AUTO 36017KT 340V040 9999 FEW180 31/21 Q1011

Taf

2021/08/05 12:21
TAF LICR 051100Z 0512/0612 35018G30KT 9999 SCT040
Gewünschte Webcam nicht vorhanden? Dann fügen Sie eine hinzu. Sie wird dann so schnell wie möglich freigeschaltet
Url: Title: